createdAt,value
2023-03-19T00:01:29.384Z,100.00
2023-03-19T00:04:06.677Z,100.00
2023-03-19T00:06:37.117Z,100.00
2023-03-19T00:09:06.789Z,100.00
2023-03-19T00:11:35.826Z,100.00
2023-03-19T00:14:06.352Z,100.00
2023-03-19T00:16:35.314Z,100.00
2023-03-19T00:19:05.710Z,100.00
2023-03-19T00:21:34.574Z,100.00
2023-03-19T00:24:05.620Z,100.00
2023-03-19T00:26:35.872Z,100.00
2023-03-19T00:29:09.069Z,100.00
2023-03-19T00:31:40.719Z,100.00
2023-03-19T00:34:10.116Z,100.00
2023-03-19T00:36:41.386Z,100.00
2023-03-19T00:39:13.738Z,100.00
2023-03-19T00:41:50.486Z,100.00
2023-03-19T00:44:22.307Z,100.00
2023-03-19T00:46:51.741Z,100.00
2023-03-19T00:49:20.710Z,100.00
2023-03-19T00:51:51.613Z,100.00
2023-03-19T00:54:20.604Z,100.00
2023-03-19T00:56:49.699Z,100.00
2023-03-19T00:59:20.182Z,100.00
2023-03-19T01:01:52.816Z,100.00
2023-03-19T01:04:23.502Z,100.00
2023-03-19T01:06:56.486Z,100.00
2023-03-19T01:09:29.642Z,100.00
2023-03-19T01:11:59.159Z,100.00
2023-03-19T01:14:30.616Z,100.00
2023-03-19T01:16:59.791Z,100.00
2023-03-19T01:19:28.916Z,100.00
2023-03-19T01:21:57.541Z,100.00
2023-03-19T01:24:27.512Z,100.00
2023-03-19T01:26:56.856Z,100.00
2023-03-19T01:29:25.896Z,100.00
2023-03-19T01:31:58.880Z,100.00
2023-03-19T01:34:27.624Z,100.00
2023-03-19T01:36:58.839Z,100.00
2023-03-19T01:39:27.940Z,100.00
2023-03-19T01:42:02.093Z,100.00
2023-03-19T01:44:34.703Z,100.00
2023-03-19T01:47:09.051Z,100.00
2023-03-19T01:49:38.109Z,100.00
2023-03-19T01:52:09.222Z,100.00
2023-03-19T01:54:41.621Z,100.00
2023-03-19T01:57:14.329Z,100.00
2023-03-19T01:59:45.985Z,100.00
2023-03-19T02:02:23.787Z,100.00
2023-03-19T02:04:58.109Z,100.00
2023-03-19T02:07:29.308Z,100.00
2023-03-19T02:09:59.370Z,100.00
2023-03-19T02:12:28.216Z,100.00
2023-03-19T02:14:57.737Z,100.00
2023-03-19T02:17:30.591Z,100.00
2023-03-19T02:20:04.906Z,100.00
2023-03-19T02:22:36.305Z,100.00
2023-03-19T02:25:11.531Z,100.00
2023-03-19T02:27:43.581Z,100.00
2023-03-19T02:30:32.358Z,100.00
2023-03-19T02:33:02.879Z,100.00
2023-03-19T02:35:36.213Z,100.00
2023-03-19T02:38:07.639Z,100.00
2023-03-19T02:40:41.073Z,100.00
2023-03-19T02:43:11.644Z,100.00
2023-03-19T02:45:41.175Z,100.00
2023-03-19T02:48:10.645Z,100.00
2023-03-19T02:50:40.395Z,100.00
2023-03-19T02:53:10.256Z,100.00
2023-03-19T02:55:39.616Z,100.00
2023-03-19T02:58:09.399Z,100.00
2023-03-19T03:00:41.683Z,100.00
2023-03-19T03:03:11.145Z,100.00
2023-03-19T03:05:41.505Z,100.00
2023-03-19T03:08:10.925Z,100.00
2023-03-19T03:10:39.906Z,100.00
2023-03-19T03:13:08.741Z,100.00
2023-03-19T03:15:39.062Z,100.00
2023-03-19T03:18:08.877Z,100.00
2023-03-19T03:20:37.997Z,100.00
2023-03-19T03:23:07.330Z,100.00
2023-03-19T03:25:36.346Z,100.00
2023-03-19T03:28:05.096Z,100.00
2023-03-19T03:30:34.587Z,100.00
2023-03-19T03:33:06.302Z,100.00
2023-03-19T03:35:35.036Z,100.00
2023-03-19T03:38:04.470Z,100.00
2023-03-19T03:40:34.043Z,100.00
2023-03-19T03:43:03.074Z,100.00
2023-03-19T03:45:33.106Z,100.00
2023-03-19T03:48:01.724Z,100.00
2023-03-19T03:50:34.009Z,100.00
2023-03-19T03:53:03.023Z,100.00
2023-03-19T03:55:33.705Z,100.00
2023-03-19T03:58:03.177Z,100.00
2023-03-19T04:00:33.268Z,100.00
2023-03-19T04:03:03.146Z,100.00
2023-03-19T04:05:33.927Z,100.00
2023-03-19T04:08:03.892Z,100.00
2023-03-19T04:10:33.794Z,100.00
2023-03-19T04:13:03.393Z,100.00
2023-03-19T04:15:31.748Z,100.00
2023-03-19T04:18:00.147Z,100.00
2023-03-19T04:20:28.755Z,100.00
2023-03-19T04:22:58.881Z,100.00
2023-03-19T04:25:27.567Z,100.00
2023-03-19T04:27:59.864Z,100.00
2023-03-19T04:30:28.587Z,100.00
2023-03-19T04:32:57.328Z,100.00
2023-03-19T04:35:27.395Z,100.00
2023-03-19T04:37:56.034Z,100.00
2023-03-19T04:40:26.232Z,100.00
2023-03-19T04:42:55.276Z,100.00
2023-03-19T04:45:24.055Z,100.00
2023-03-19T04:47:52.822Z,100.00
2023-03-19T04:50:21.368Z,100.00
2023-03-19T04:52:49.924Z,100.00
2023-03-19T04:55:19.086Z,100.00
2023-03-19T04:57:49.397Z,100.00
2023-03-19T05:00:19.547Z,100.00
2023-03-19T05:02:48.089Z,100.00
2023-03-19T05:05:17.287Z,100.00
2023-03-19T05:07:46.079Z,100.00
2023-03-19T05:10:14.835Z,100.00
2023-03-19T05:12:43.857Z,100.00
2023-03-19T05:15:13.870Z,100.00
2023-03-19T05:17:43.038Z,100.00
2023-03-19T05:20:13.784Z,100.00
2023-03-19T05:22:42.764Z,100.00
2023-03-19T05:25:11.715Z,100.00
2023-03-19T05:27:40.081Z,100.00
2023-03-19T05:30:09.969Z,100.00
2023-03-19T05:32:40.909Z,100.00
2023-03-19T05:35:12.352Z,100.00
2023-03-19T05:37:41.907Z,100.00
2023-03-19T05:40:12.635Z,100.00
2023-03-19T05:42:40.836Z,100.00
2023-03-19T05:45:10.285Z,100.00
2023-03-19T05:47:41.123Z,100.00
2023-03-19T05:50:11.826Z,100.00
2023-03-19T05:52:40.291Z,100.00
2023-03-19T05:55:10.001Z,100.00
2023-03-19T05:57:38.283Z,100.00
2023-03-19T06:00:09.353Z,100.00
2023-03-19T06:02:40.869Z,100.00
2023-03-19T06:05:11.315Z,100.00
2023-03-19T06:07:39.725Z,100.00
2023-03-19T06:10:09.108Z,100.00
2023-03-19T06:12:37.879Z,100.00
2023-03-19T06:15:07.215Z,100.00
2023-03-19T06:17:35.692Z,100.00
2023-03-19T06:20:06.526Z,100.00
2023-03-19T06:22:35.750Z,100.00
2023-03-19T06:25:04.964Z,100.00
2023-03-19T06:27:33.328Z,100.00
2023-03-19T06:30:01.722Z,100.00
2023-03-19T06:32:29.992Z,100.00
2023-03-19T06:34:58.587Z,100.00
2023-03-19T06:37:28.788Z,100.00
2023-03-19T06:39:57.005Z,100.00
2023-03-19T06:42:25.389Z,100.00
2023-03-19T06:44:54.378Z,100.00
2023-03-19T06:47:22.830Z,100.00
2023-03-19T06:49:51.550Z,100.00
2023-03-19T06:52:20.083Z,100.00
2023-03-19T06:54:49.860Z,100.00
2023-03-19T06:57:18.550Z,100.00
2023-03-19T06:59:47.017Z,100.00
2023-03-19T07:02:15.505Z,100.00
2023-03-19T07:04:44.526Z,100.00
2023-03-19T07:07:13.512Z,100.00
2023-03-19T07:09:42.130Z,100.00
2023-03-19T07:12:12.136Z,100.00
2023-03-19T07:14:41.189Z,100.00
2023-03-19T07:17:10.488Z,100.00
2023-03-19T07:19:38.790Z,100.00
2023-03-19T07:22:08.107Z,100.00
2023-03-19T07:24:36.499Z,100.00
2023-03-19T07:27:04.746Z,100.00
2023-03-19T07:29:35.185Z,100.00
2023-03-19T07:32:04.053Z,100.00
2023-03-19T07:34:32.681Z,100.00
2023-03-19T07:37:01.610Z,100.00
2023-03-19T07:39:29.978Z,100.00
2023-03-19T07:41:58.325Z,100.00
2023-03-19T07:44:27.152Z,100.00
2023-03-19T07:46:57.370Z,100.00
2023-03-19T07:49:26.138Z,100.00
2023-03-19T07:51:54.742Z,100.00
2023-03-19T07:54:23.797Z,100.00
2023-03-19T07:56:52.215Z,100.00
2023-03-19T07:59:20.553Z,100.00
2023-03-19T08:01:49.030Z,100.00
2023-03-19T08:04:19.533Z,100.00
2023-03-19T08:06:48.158Z,100.00
2023-03-19T08:09:17.173Z,100.00
2023-03-19T08:11:46.021Z,100.00
2023-03-19T08:14:14.361Z,100.00
2023-03-19T08:16:42.888Z,100.00
2023-03-19T08:19:11.374Z,100.00
2023-03-19T08:21:41.389Z,100.00
2023-03-19T08:24:10.863Z,100.00
2023-03-19T08:26:39.502Z,100.00
2023-03-19T08:29:08.821Z,100.00
2023-03-19T08:31:37.079Z,100.00
2023-03-19T08:34:06.442Z,100.00
2023-03-19T08:36:35.234Z,100.00
2023-03-19T08:39:05.559Z,100.00
2023-03-19T08:41:34.249Z,100.00
2023-03-19T08:44:03.205Z,100.00
2023-03-19T08:46:32.469Z,100.00
2023-03-19T08:49:01.349Z,100.00
2023-03-19T08:51:32.369Z,100.00
2023-03-19T08:54:01.449Z,100.00
2023-03-19T08:56:31.234Z,100.00
2023-03-19T08:58:59.994Z,100.00
2023-03-19T09:01:28.742Z,100.00
2023-03-19T09:03:57.952Z,100.00
2023-03-19T09:06:26.614Z,100.00
2023-03-19T09:08:55.059Z,100.00
2023-03-19T09:11:23.501Z,100.00
2023-03-19T09:13:53.992Z,100.00
2023-03-19T09:16:22.643Z,100.00
2023-03-19T09:18:51.013Z,100.00
2023-03-19T09:21:19.765Z,100.00
2023-03-19T09:23:48.808Z,100.00
2023-03-19T09:26:18.391Z,100.00
2023-03-19T09:28:47.114Z,100.00
2023-03-19T09:31:17.224Z,100.00
2023-03-19T09:33:46.391Z,100.00
2023-03-19T09:36:15.711Z,100.00
2023-03-19T09:38:44.628Z,100.00
2023-03-19T09:41:21.107Z,100.00
2023-03-19T09:44:01.007Z,100.00
2023-03-19T09:46:37.917Z,100.00
2023-03-19T09:49:14.184Z,100.00
2023-03-19T09:51:48.473Z,100.00
2023-03-19T09:54:32.810Z,100.00
2023-03-19T09:57:01.999Z,100.00
2023-03-19T09:59:31.382Z,100.00
2023-03-19T10:02:21.593Z,100.00
2023-03-19T10:05:00.011Z,100.00
2023-03-19T10:07:42.912Z,100.00
2023-03-19T10:10:31.971Z,100.00
2023-03-19T10:13:09.663Z,100.00
2023-03-19T10:15:39.785Z,100.00
2023-03-19T10:18:14.829Z,100.00
2023-03-19T10:20:49.391Z,100.00
2023-03-19T10:23:44.242Z,100.00
2023-03-19T10:26:14.933Z,100.00
2023-03-19T10:28:46.290Z,100.00
2023-03-19T10:31:29.185Z,100.00
2023-03-19T10:34:13.100Z,100.00
2023-03-19T10:36:41.741Z,100.00
2023-03-19T10:39:10.463Z,100.00
2023-03-19T10:41:48.439Z,100.00
2023-03-19T10:44:30.219Z,100.00
2023-03-19T10:47:12.339Z,100.00
2023-03-19T10:49:42.934Z,100.00
2023-03-19T10:52:22.485Z,100.00
2023-03-19T10:54:57.558Z,100.00
2023-03-19T10:57:32.250Z,100.00
2023-03-19T11:00:07.384Z,100.00
2023-03-19T11:02:39.717Z,100.00
2023-03-19T11:05:24.885Z,100.00
2023-03-19T11:07:58.575Z,100.00
2023-03-19T11:10:30.134Z,100.00
2023-03-19T11:13:01.109Z,100.00
2023-03-19T11:15:36.355Z,100.00
2023-03-19T11:18:09.906Z,100.00
2023-03-19T11:20:41.661Z,100.00
2023-03-19T11:23:17.925Z,100.00
2023-03-19T11:25:52.571Z,100.00
2023-03-19T11:28:26.326Z,100.00
2023-03-19T11:31:01.073Z,100.00
2023-03-19T11:33:50.445Z,100.00
2023-03-19T11:36:24.482Z,100.00
2023-03-19T11:38:57.855Z,100.00
2023-03-19T11:41:39.240Z,100.00
2023-03-19T11:44:12.245Z,100.00
2023-03-19T11:46:54.404Z,100.00
2023-03-19T11:49:55.486Z,100.00
2023-03-19T11:52:36.745Z,100.00
2023-03-19T11:55:18.955Z,100.00
2023-03-19T11:58:13.624Z,100.00
2023-03-19T12:00:45.837Z,100.00
2023-03-19T12:03:39.094Z,100.00
2023-03-19T12:06:15.820Z,100.00
2023-03-19T12:08:53.077Z,100.00
2023-03-19T12:11:30.863Z,100.00
2023-03-19T12:14:10.834Z,100.00
2023-03-19T12:16:55.610Z,100.00
2023-03-19T12:19:48.862Z,100.00
2023-03-19T12:22:26.762Z,100.00
2023-03-19T12:25:18.622Z,100.00
2023-03-19T12:27:56.566Z,100.00
2023-03-19T12:30:34.625Z,100.00
2023-03-19T12:33:15.581Z,100.00
2023-03-19T12:35:48.322Z,100.00
2023-03-19T12:38:22.039Z,100.00
2023-03-19T12:40:55.985Z,100.00
2023-03-19T12:43:27.282Z,100.00
2023-03-19T12:46:01.298Z,100.00
2023-03-19T12:48:31.681Z,100.00
2023-03-19T12:51:08.317Z,100.00
2023-03-19T12:53:45.187Z,100.00
2023-03-19T12:56:26.891Z,100.00
2023-03-19T12:59:05.287Z,100.00
2023-03-19T13:01:38.791Z,100.00
2023-03-19T13:04:18.847Z,100.00
2023-03-19T13:06:53.731Z,100.00
2023-03-19T13:09:30.344Z,100.00
2023-03-19T13:12:05.369Z,100.00
2023-03-19T13:14:39.947Z,100.00
2023-03-19T13:17:21.549Z,100.00
2023-03-19T13:19:54.582Z,100.00
2023-03-19T13:22:25.149Z,100.00
2023-03-19T13:24:55.340Z,100.00
2023-03-19T13:27:31.409Z,100.00
2023-03-19T13:30:18.414Z,100.00
2023-03-19T13:32:49.952Z,100.00
2023-03-19T13:35:36.681Z,100.00
2023-03-19T13:38:13.306Z,100.00
2023-03-19T13:40:50.566Z,99.49
2023-03-19T13:43:40.090Z,100.00
2023-03-19T13:46:37.805Z,100.00
2023-03-19T13:49:29.903Z,100.00
2023-03-19T13:52:03.063Z,100.00
2023-03-19T13:54:39.841Z,100.00
2023-03-19T13:57:21.453Z,100.00
2023-03-19T13:59:52.700Z,99.60
2023-03-19T14:02:49.651Z,93.43
2023-03-19T14:05:22.878Z,90.28
2023-03-19T14:07:56.857Z,84.90
2023-03-19T14:10:27.584Z,85.40
2023-03-19T14:13:07.596Z,88.81
2023-03-19T14:15:43.533Z,94.01
2023-03-19T14:18:19.427Z,91.35
2023-03-19T14:20:53.987Z,95.94
2023-03-19T14:23:38.554Z,94.60
2023-03-19T14:26:17.516Z,87.38
2023-03-19T14:28:59.212Z,84.74
2023-03-19T14:31:42.159Z,90.58
2023-03-19T14:34:22.953Z,90.62
2023-03-19T14:36:59.166Z,91.08
2023-03-19T14:39:30.485Z,91.05
2023-03-19T14:42:06.515Z,91.93
2023-03-19T14:45:09.430Z,88.36
2023-03-19T14:48:03.517Z,90.60
2023-03-19T14:50:55.476Z,90.70
2023-03-19T14:53:31.005Z,91.78
2023-03-19T14:56:15.391Z,95.98
2023-03-19T14:58:52.878Z,99.06
2023-03-19T15:01:22.537Z,98.77
2023-03-19T15:03:58.335Z,97.40
2023-03-19T15:06:31.909Z,92.25
2023-03-19T15:09:01.742Z,95.47
2023-03-19T15:11:53.343Z,85.63
2023-03-19T15:14:41.197Z,86.01
2023-03-19T15:17:17.516Z,89.54
2023-03-19T15:19:48.424Z,88.04
2023-03-19T15:22:21.086Z,88.07
2023-03-19T15:24:50.474Z,89.71
2023-03-19T15:27:22.343Z,91.79
2023-03-19T15:29:52.154Z,89.10
2023-03-19T15:32:52.012Z,85.32
2023-03-19T15:35:28.536Z,79.11
2023-03-19T15:38:01.318Z,80.55
2023-03-19T15:40:32.688Z,81.02
2023-03-19T15:43:03.801Z,81.17
2023-03-19T15:45:35.159Z,77.71
2023-03-19T15:48:07.309Z,74.02
2023-03-19T15:50:44.118Z,77.78
2023-03-19T15:53:18.234Z,76.97
2023-03-19T15:55:51.005Z,79.79
2023-03-19T15:58:24.387Z,79.93
2023-03-19T16:00:54.418Z,78.39
2023-03-19T16:03:28.776Z,80.62
2023-03-19T16:06:03.842Z,77.32
2023-03-19T16:08:32.642Z,79.20
2023-03-19T16:11:27.793Z,79.22
2023-03-19T16:13:59.730Z,80.41
2023-03-19T16:16:33.676Z,80.86
2023-03-19T16:19:03.271Z,78.50
2023-03-19T16:21:38.099Z,78.10
2023-03-19T16:24:16.680Z,78.13
2023-03-19T16:26:50.088Z,80.94
2023-03-19T16:29:23.406Z,82.28
2023-03-19T16:31:54.112Z,82.00
2023-03-19T16:34:39.316Z,84.02
2023-03-19T16:37:41.156Z,85.10
2023-03-19T16:40:52.587Z,89.29
2023-03-19T16:43:25.452Z,91.30
2023-03-19T16:46:05.638Z,93.08
2023-03-19T16:48:33.918Z,95.04
2023-03-19T16:51:02.818Z,97.83
2023-03-19T16:53:34.456Z,98.27
2023-03-19T16:56:03.567Z,100.00
2023-03-19T16:58:36.391Z,100.00
2023-03-19T17:01:12.150Z,100.00
2023-03-19T17:03:41.226Z,100.00
2023-03-19T17:06:13.164Z,100.00
2023-03-19T17:08:44.130Z,100.00
2023-03-19T17:11:20.060Z,100.00
2023-03-19T17:13:48.789Z,100.00
2023-03-19T17:16:17.692Z,100.00
2023-03-19T17:18:49.312Z,100.00
2023-03-19T17:21:22.627Z,100.00
2023-03-19T17:23:52.518Z,100.00
2023-03-19T17:26:25.918Z,100.00
2023-03-19T17:28:55.187Z,100.00
2023-03-19T17:31:27.154Z,100.00
2023-03-19T17:34:02.282Z,100.00
2023-03-19T17:36:30.905Z,100.00
2023-03-19T17:39:01.005Z,100.00
2023-03-19T17:41:30.661Z,100.00
2023-03-19T17:43:59.045Z,100.00
2023-03-19T17:46:29.356Z,100.00
2023-03-19T17:48:58.005Z,100.00
2023-03-19T17:51:28.163Z,100.00
2023-03-19T17:53:57.130Z,100.00
2023-03-19T17:56:27.700Z,100.00
2023-03-19T17:58:56.530Z,100.00
2023-03-19T18:01:28.347Z,100.00
2023-03-19T18:03:59.460Z,100.00
2023-03-19T18:06:33.407Z,100.00
2023-03-19T18:09:02.034Z,100.00
2023-03-19T18:11:32.322Z,100.00
2023-03-19T18:14:01.219Z,100.00
2023-03-19T18:16:31.429Z,100.00
2023-03-19T18:19:02.510Z,100.00
2023-03-19T18:21:31.507Z,100.00
2023-03-19T18:24:01.663Z,100.00
2023-03-19T18:26:31.981Z,100.00
2023-03-19T18:29:00.527Z,100.00
2023-03-19T18:31:30.550Z,100.00
2023-03-19T18:34:03.067Z,100.00
2023-03-19T18:36:34.213Z,100.00
2023-03-19T18:39:03.072Z,100.00
2023-03-19T18:41:33.910Z,99.55
2023-03-19T18:44:02.635Z,99.47
2023-03-19T18:46:33.886Z,100.00
2023-03-19T18:49:05.198Z,99.96
2023-03-19T18:51:34.198Z,100.00
2023-03-19T18:54:02.896Z,100.00
2023-03-19T18:56:34.648Z,99.25
2023-03-19T18:59:09.484Z,99.38
2023-03-19T19:01:38.063Z,100.00
2023-03-19T19:04:07.181Z,100.00
2023-03-19T19:06:47.469Z,100.00
2023-03-19T19:09:16.448Z,100.00
2023-03-19T19:11:48.471Z,100.00
2023-03-19T19:14:22.036Z,100.00
2023-03-19T19:16:51.353Z,100.00
2023-03-19T19:19:22.728Z,100.00
2023-03-19T19:21:51.459Z,100.00
2023-03-19T19:24:20.311Z,100.00
2023-03-19T19:26:54.203Z,100.00
2023-03-19T19:29:25.119Z,100.00
2023-03-19T19:31:54.489Z,100.00
2023-03-19T19:34:23.504Z,100.00
2023-03-19T19:36:52.631Z,100.00
2023-03-19T19:39:21.469Z,100.00
2023-03-19T19:41:51.919Z,100.00
2023-03-19T19:44:22.130Z,100.00
2023-03-19T19:46:53.489Z,100.00
2023-03-19T19:49:23.548Z,100.00
2023-03-19T19:51:52.387Z,100.00
2023-03-19T19:54:21.799Z,100.00
2023-03-19T19:56:52.490Z,100.00
2023-03-19T19:59:27.405Z,100.00
2023-03-19T20:01:56.225Z,100.00
2023-03-19T20:04:25.395Z,100.00
2023-03-19T20:06:55.318Z,100.00
2023-03-19T20:09:24.686Z,100.00
2023-03-19T20:11:54.729Z,100.00
2023-03-19T20:14:24.246Z,100.00
2023-03-19T20:16:53.723Z,100.00
2023-03-19T20:19:22.533Z,100.00
2023-03-19T20:21:51.330Z,100.00
2023-03-19T20:24:19.697Z,100.00
2023-03-19T20:26:48.910Z,100.00
2023-03-19T20:29:19.018Z,100.00
2023-03-19T20:31:48.852Z,100.00
2023-03-19T20:34:32.436Z,100.00
2023-03-19T20:37:05.204Z,100.00
2023-03-19T20:39:33.523Z,100.00
2023-03-19T20:42:02.749Z,100.00
2023-03-19T20:44:33.625Z,100.00
2023-03-19T20:47:01.948Z,100.00
2023-03-19T20:49:31.212Z,100.00
2023-03-19T20:52:00.067Z,100.00
2023-03-19T20:54:28.441Z,100.00
2023-03-19T20:56:58.761Z,100.00
2023-03-19T20:59:29.587Z,100.00
2023-03-19T21:01:59.481Z,100.00
2023-03-19T21:04:28.265Z,100.00
2023-03-19T21:06:57.550Z,100.00
2023-03-19T21:09:26.378Z,100.00
2023-03-19T21:11:55.631Z,100.00
2023-03-19T21:14:27.129Z,100.00
2023-03-19T21:16:55.678Z,100.00
2023-03-19T21:19:26.108Z,100.00
2023-03-19T21:21:56.075Z,100.00
2023-03-19T21:24:25.742Z,100.00
2023-03-19T21:26:55.048Z,100.00
2023-03-19T21:29:30.267Z,100.00
2023-03-19T21:31:58.709Z,100.00
2023-03-19T21:34:28.785Z,100.00
2023-03-19T21:36:57.669Z,100.00
2023-03-19T21:39:26.157Z,100.00
2023-03-19T21:41:55.152Z,100.00
2023-03-19T21:44:25.069Z,100.00
2023-03-19T21:46:53.507Z,100.00
2023-03-19T21:49:22.173Z,100.00
2023-03-19T21:51:51.856Z,100.00
2023-03-19T21:54:20.265Z,100.00
2023-03-19T21:56:48.452Z,100.00
2023-03-19T21:59:19.461Z,100.00
2023-03-19T22:01:48.835Z,100.00
2023-03-19T22:04:19.936Z,100.00
2023-03-19T22:06:49.376Z,100.00
2023-03-19T22:09:19.147Z,100.00
2023-03-19T22:11:47.565Z,100.00
2023-03-19T22:14:19.309Z,100.00
2023-03-19T22:16:52.379Z,100.00
2023-03-19T22:19:21.309Z,100.00
2023-03-19T22:21:50.278Z,100.00
2023-03-19T22:24:19.997Z,100.00
2023-03-19T22:26:53.685Z,100.00
2023-03-19T22:29:25.505Z,100.00
2023-03-19T22:31:55.392Z,100.00
2023-03-19T22:34:28.608Z,100.00
2023-03-19T22:36:57.200Z,100.00
2023-03-19T22:39:26.969Z,100.00
2023-03-19T22:41:55.284Z,100.00
2023-03-19T22:44:28.163Z,100.00
2023-03-19T22:46:59.201Z,100.00
2023-03-19T22:49:30.861Z,100.00
2023-03-19T22:52:00.158Z,100.00
2023-03-19T22:54:30.508Z,100.00
2023-03-19T22:57:02.879Z,100.00
2023-03-19T22:59:31.772Z,100.00
2023-03-19T23:02:01.189Z,100.00
2023-03-19T23:04:32.340Z,100.00
2023-03-19T23:07:02.243Z,100.00
2023-03-19T23:09:34.001Z,100.00
2023-03-19T23:12:03.474Z,100.00
2023-03-19T23:14:32.601Z,100.00
2023-03-19T23:17:03.680Z,100.00
2023-03-19T23:19:34.508Z,100.00
2023-03-19T23:22:05.204Z,100.00
2023-03-19T23:24:35.588Z,100.00
2023-03-19T23:27:04.552Z,100.00
2023-03-19T23:29:36.058Z,100.00
2023-03-19T23:32:05.034Z,100.00
2023-03-19T23:34:39.760Z,100.00
2023-03-19T23:37:14.640Z,100.00
2023-03-19T23:39:48.402Z,100.00
2023-03-19T23:42:27.779Z,100.00
2023-03-19T23:45:00.613Z,100.00
2023-03-19T23:47:31.215Z,100.00
2023-03-19T23:49:59.708Z,100.00
2023-03-19T23:52:29.098Z,100.00
2023-03-19T23:54:58.970Z,100.00
2023-03-19T23:57:29.726Z,100.00
2023-03-19T23:59:58.790Z,100.00
